»·PEaware :: N72G O09-O57

N72G :: O09-O57

FLIGHT INFORMATION

Flight Status: Arrived
Operator: Privately registered:
United States
More flights under this callsign
Pilot: Joe K. (15257)
Aircraft: BEECH AIRCRAFT A90-E90 KING AIR
(BE9L)
More flights by this aircraft type
Origin: O09 Round Valley
United States
Destination: O57 Bryant
United States
More flights between these airports :: More routes between these airports
Route: +MCC
File this flight plan on PilotEdge
Remarks:
Altitude:
(Current/Filed)
15,000ft
Speed:
(Current/Filed)
210kts
Departed: 06-May-17 03:13 PM
Arrived: 06-May-17 04:31 PM
Distance/Time
Traveled:
210nm/1:17
Distance/Time
To Go:
Arrived

Flight Plot

Page will automatically refresh every two minutes.

Flight plan parsing failed; only flown route is shown


Map Options




Map Legend


Flown Route
Filed Route
Departure Airport
Arrival Airport
Navaid (VOR, NDB)
Fix

Horizontal Profiles

Position Reports

Time Latitude Longitude Heading Altitude Ground
Speed
06-May-17 14:59 39.791867 -123.272015 114 1437ft 0kts
06-May-17 15:00 39.791867 -123.272015 114 1437ft 0kts
06-May-17 15:01 39.791867 -123.272015 114 1437ft 0kts
06-May-17 15:02 39.791867 -123.272015 114 1437ft 0kts
06-May-17 15:03 39.791867 -123.272015 114 1437ft 0kts
06-May-17 15:04 39.791867 -123.272015 114 1437ft 0kts
06-May-17 15:05 39.791867 -123.272015 114 1437ft 0kts
06-May-17 15:06 39.791867 -123.272015 114 1437ft 0kts
06-May-17 15:07 39.791867 -123.272015 114 1437ft 0kts
06-May-17 15:08 39.791867 -123.272015 114 1437ft 0kts
06-May-17 15:09 39.791867 -123.272015 114 1437ft 0kts
06-May-17 15:10 39.791867 -123.272015 114 1437ft 0kts
06-May-17 15:11 39.791867 -123.272015 114 1437ft 0kts
06-May-17 15:12 39.791867 -123.272015 114 1437ft 0kts
06-May-17 15:13 39.791867 -123.272015 114 1437ft 0kts
06-May-17 15:14 39.791867 -123.272015 114 1437ft 0kts
06-May-17 15:15 39.782418 -123.240247 109 2420ft 126kts
06-May-17 15:16 39.758219 -123.206355 136 4632ft 132kts
06-May-17 15:17 39.733877 -123.168621 123 6547ft 148kts
06-May-17 15:18 39.708594 -123.126438 122 8364ft 147kts
06-May-17 15:19 39.684000 -123.084824 122 10046ft 145kts
06-May-17 15:20 39.660029 -123.044171 122 11614ft 141kts
06-May-17 15:21 39.636038 -123.003561 123 12954ft 142kts
06-May-17 15:22 39.621533 -122.960222 50 13911ft 162kts
06-May-17 15:23 39.622141 -122.917827 151 14330ft 180kts
06-May-17 15:24 39.576348 -122.892679 144 15011ft 181kts
06-May-17 15:25 39.541013 -122.842951 125 15025ft 195kts
06-May-17 15:26 39.507326 -122.786436 125 15007ft 200kts
06-May-17 15:27 39.473246 -122.729166 125 14996ft 201kts
06-May-17 15:28 39.439097 -122.671892 125 14996ft 201kts
06-May-17 15:29 39.404950 -122.614716 125 14996ft 201kts
06-May-17 15:30 39.370722 -122.557511 125 14995ft 201kts
06-May-17 15:31 39.336472 -122.500371 125 14995ft 201kts
06-May-17 15:32 39.302282 -122.443433 125 14995ft 201kts
06-May-17 15:33 39.268028 -122.386492 125 15011ft 200kts
06-May-17 15:34 39.234272 -122.330473 125 15025ft 201kts
06-May-17 15:35 39.199464 -122.272853 125 15028ft 206kts
06-May-17 15:36 39.164084 -122.214325 125 15025ft 207kts
06-May-17 15:37 39.128678 -122.155895 125 15025ft 206kts
06-May-17 15:38 39.093394 -122.097760 125 15025ft 206kts
06-May-17 15:39 39.057920 -122.039430 125 15024ft 208kts
06-May-17 15:40 39.022209 -121.980815 125 15024ft 208kts
06-May-17 15:41 38.986529 -121.922347 125 15002ft 209kts
06-May-17 15:42 38.950658 -121.863691 125 14996ft 208kts
06-May-17 15:43 38.914818 -121.805185 125 14995ft 208kts
06-May-17 15:44 38.879853 -121.748211 125 14996ft 208kts
06-May-17 15:45 38.844083 -121.690034 125 14996ft 206kts
06-May-17 15:46 38.808835 -121.632802 125 14995ft 203kts
06-May-17 15:47 38.774431 -121.577061 125 14971ft 204kts
06-May-17 15:48 38.739290 -121.520174 125 14968ft 204kts
06-May-17 15:49 38.704086 -121.463318 125 14989ft 203kts
06-May-17 15:50 38.669085 -121.405960 114 14983ft 205kts
06-May-17 15:51 38.655648 -121.336205 102 14998ft 205kts
06-May-17 15:52 38.643052 -121.264993 102 14999ft 207kts
06-May-17 15:53 38.630431 -121.193342 102 15000ft 206kts
06-May-17 15:54 38.617860 -121.122181 102 15025ft 205kts
06-May-17 15:55 38.605214 -121.050864 102 15025ft 206kts
06-May-17 15:56 38.592554 -120.979741 102 15013ft 206kts
06-May-17 15:57 38.579769 -120.908183 102 15005ft 206kts
06-May-17 15:58 38.566977 -120.836846 102 15005ft 206kts
06-May-17 15:59 38.554134 -120.765496 102 14996ft 206kts
06-May-17 16:00 38.541313 -120.694522 102 14995ft 205kts
06-May-17 16:01 38.528394 -120.623285 102 14995ft 205kts
06-May-17 16:02 38.515493 -120.552402 102 14995ft 205kts
06-May-17 16:03 38.502502 -120.481288 102 14994ft 205kts
06-May-17 16:04 38.489490 -120.410320 102 14960ft 206kts
06-May-17 16:05 38.476680 -120.340707 103 14986ft 205kts
06-May-17 16:06 38.463616 -120.269965 103 14988ft 206kts
06-May-17 16:07 38.450418 -120.198686 103 14983ft 210kts
06-May-17 16:08 38.436380 -120.123271 103 14988ft 223kts
06-May-17 16:09 38.421930 -120.045915 103 14987ft 226kts
06-May-17 16:10 38.407237 -119.967642 102 14928ft 228kts
06-May-17 16:11 38.392608 -119.889841 102 14879ft 225kts
06-May-17 16:12 38.378006 -119.812557 102 14879ft 224kts
06-May-17 16:13 38.363398 -119.735545 102 14879ft 223kts
06-May-17 16:14 38.348884 -119.659326 102 14879ft 222kts
06-May-17 16:15 38.334221 -119.582619 102 14879ft 222kts
06-May-17 16:16 38.319569 -119.506257 102 14879ft 222kts
06-May-17 16:17 38.305029 -119.430763 102 14878ft 215kts
06-May-17 16:18 38.290902 -119.357659 102 14879ft 211kts
06-May-17 16:19 38.277164 -119.286758 102 14706ft 202kts
06-May-17 16:20 38.262156 -119.217893 129 13028ft 205kts
06-May-17 16:21 38.228885 -119.246138 281 11307ft 199kts
06-May-17 16:22 38.267395 -119.246825 71 9640ft 191kts
06-May-17 16:23 38.242795 -119.210228 215 7990ft 185kts
06-May-17 16:24 38.253868 -119.243547 32 7192ft 110kts
06-May-17 16:25 38.277411 -119.219382 15 6948ft 119kts
06-May-17 16:26 38.292438 -119.238174 226 6969ft 108kts
06-May-17 16:27 38.264789 -119.231488 176 6957ft 110kts
06-May-17 16:28 38.238277 -119.221823 67 6954ft 103kts
06-May-17 16:29 38.265076 -119.222052 355 6740ft 94kts
06-May-17 16:30 38.280377 -119.226135 135 7141ft 111kts
06-May-17 16:31 38.273886 -119.236415 350 6872ft 101kts
06-May-17 16:32 38.281283 -119.224053 165 6859ft 122kts
06-May-17 16:33 38.260205 -119.222677 180 6470ft 20kts
06-May-17 16:34 38.258788 -119.223015 328 6470ft 0kts

Navigation Log

Ident Type
Flight plan parsing failed, navigation log unavailable